<?xml version="1.0" encoding="UTF-8" standalone="no" ?>
<gpx xmlns="http://www.topografix.com/GPX/1/1" xmlns:xsi="http://www.w3.org/2001/XMLSchema-instance" xsi:schemaLocation="http://www.topografix.com/GPX/1/1 http://www.topografix.com/GPX/1/1/gpx.xsd" version="1.1" creator="VisuGPX - https://www.visugpx.com">
  <metadata>
    <name>Sentier littoral basque espagnol</name>
    <desc><![CDATA[Randonnée le long du sentier littoral (GR121) entre Pasaia et San Sébastien. Des paysages à couper le souffle et une météo estivale en ce 13 novembre 2011.]]></desc>
  </metadata>
  <trk>
    <name><![CDATA[ACTIVE LOG]]></name>
    <trkseg>
      <trkpt lat="43.32229" lon="-1.93739">
        <ele>-45.0446777</ele>
        <time>2011-11-13T09:07:16Z</time>
      </trkpt>
      <trkpt lat="43.32232" lon="-1.93716">
        <ele>-45.5252686</ele>
        <time>2011-11-13T09:07:48Z</time>
      </trkpt>
      <trkpt lat="43.32244" lon="-1.93682">
        <ele>-38.3153076</ele>
        <time>2011-11-13T09:08:18Z</time>
      </trkpt>
      <trkpt lat="43.32241" lon="-1.93632">
        <ele>-38.7960205</ele>
        <time>2011-11-13T09:08:48Z</time>
      </trkpt>
      <trkpt lat="43.32249" lon="-1.93579">
        <ele>-38.3153076</ele>
        <time>2011-11-13T09:09:18Z</time>
      </trkpt>
      <trkpt lat="43.32274" lon="-1.93565">
        <ele>-38.3153076</ele>
        <time>2011-11-13T09:09:48Z</time>
      </trkpt>
      <trkpt lat="43.32272" lon="-1.93508">
        <ele>-38.7960205</ele>
        <time>2011-11-13T09:10:18Z</time>
      </trkpt>
      <trkpt lat="43.32288" lon="-1.93471">
        <ele>-38.7960205</ele>
        <time>2011-11-13T09:10:48Z</time>
      </trkpt>
      <trkpt lat="43.32294" lon="-1.93417">
        <ele>-39.7573242</ele>
        <time>2011-11-13T09:11:18Z</time>
      </trkpt>
      <trkpt lat="43.32307" lon="-1.93358">
        <ele>-40.2380371</ele>
        <time>2011-11-13T09:11:48Z</time>
      </trkpt>
      <trkpt lat="43.32312" lon="-1.93315">
        <ele>-39.7573242</ele>
        <time>2011-11-13T09:12:18Z</time>
      </trkpt>
      <trkpt lat="43.32316" lon="-1.93264">
        <ele>-40.71875</ele>
        <time>2011-11-13T09:12:48Z</time>
      </trkpt>
      <trkpt lat="43.32314" lon="-1.93217">
        <ele>-41.6800537</ele>
        <time>2011-11-13T09:13:18Z</time>
      </trkpt>
      <trkpt lat="43.32318" lon="-1.93186">
        <ele>-41.6800537</ele>
        <time>2011-11-13T09:13:48Z</time>
      </trkpt>
      <trkpt lat="43.3232" lon="-1.93144">
        <ele>-41.1994629</ele>
        <time>2011-11-13T09:14:18Z</time>
      </trkpt>
      <trkpt lat="43.32321" lon="-1.93095">
        <ele>-41.1994629</ele>
        <time>2011-11-13T09:14:48Z</time>
      </trkpt>
      <trkpt lat="43.32317" lon="-1.93041">
        <ele>-41.1994629</ele>
        <time>2011-11-13T09:15:18Z</time>
      </trkpt>
      <trkpt lat="43.32314" lon="-1.92989">
        <ele>-41.1994629</ele>
        <time>2011-11-13T09:15:48Z</time>
      </trkpt>
      <trkpt lat="43.32309" lon="-1.92921">
        <ele>-41.6800537</ele>
        <time>2011-11-13T09:16:18Z</time>
      </trkpt>
      <trkpt lat="43.32324" lon="-1.92894">
        <ele>-64.751709</ele>
        <time>2011-11-13T09:16:48Z</time>
      </trkpt>
      <trkpt lat="43.32346" lon="-1.9287">
        <ele>-87.3426514</ele>
        <time>2011-11-13T09:17:18Z</time>
      </trkpt>
      <trkpt lat="43.32383" lon="-1.92837">
        <ele>-112.817627</ele>
        <time>2011-11-13T09:17:48Z</time>
      </trkpt>
      <trkpt lat="43.32429" lon="-1.92835">
        <ele>-129.6407471</ele>
        <time>2011-11-13T09:18:18Z</time>
      </trkpt>
      <trkpt lat="43.32465" lon="-1.92829">
        <ele>-141.1765137</ele>
        <time>2011-11-13T09:18:48Z</time>
      </trkpt>
      <trkpt lat="43.32521" lon="-1.92836">
        <ele>-147.9056396</ele>
        <time>2011-11-13T09:19:18Z</time>
      </trkpt>
      <trkpt lat="43.32582" lon="-1.92842">
        <ele>-150.7896729</ele>
        <time>2011-11-13T09:19:48Z</time>
      </trkpt>
      <trkpt lat="43.32548" lon="-1.92754">
        <ele>-151.2702637</ele>
        <time>2011-11-13T09:20:18Z</time>
      </trkpt>
      <trkpt lat="43.32598" lon="-1.92681">
        <ele>-151.2702637</ele>
        <time>2011-11-13T09:20:48Z</time>
      </trkpt>
      <trkpt lat="43.32572" lon="-1.92655">
        <ele>-150.7896729</ele>
        <time>2011-11-13T09:21:18Z</time>
      </trkpt>
      <trkpt lat="43.3256" lon="-1.92626">
        <ele>-152.2316895</ele>
        <time>2011-11-13T09:21:48Z</time>
      </trkpt>
      <trkpt lat="43.3257" lon="-1.92588">
        <ele>-152.7124023</ele>
        <time>2011-11-13T09:22:18Z</time>
      </trkpt>
      <trkpt lat="43.3259" lon="-1.9255">
        <ele>-154.6350098</ele>
        <time>2011-11-13T09:22:48Z</time>
      </trkpt>
      <trkpt lat="43.3262" lon="-1.92522">
        <ele>-156.0769043</ele>
        <time>2011-11-13T09:23:18Z</time>
      </trkpt>
      <trkpt lat="43.32684" lon="-1.92477">
        <ele>-155.5961914</ele>
        <time>2011-11-13T09:23:48Z</time>
      </trkpt>
      <trkpt lat="43.32689" lon="-1.92509">
        <ele>-156.0769043</ele>
        <time>2011-11-13T09:24:18Z</time>
      </trkpt>
      <trkpt lat="43.32642" lon="-1.9217">
        <ele>-155.1156006</ele>
        <time>2011-11-13T09:24:48Z</time>
      </trkpt>
      <trkpt lat="43.32642" lon="-1.9217">
        <ele>-154.6350098</ele>
        <time>2011-11-13T09:25:18Z</time>
      </trkpt>
      <trkpt lat="43.32642" lon="-1.9217">
        <ele>-152.2316895</ele>
        <time>2011-11-13T09:25:48Z</time>
      </trkpt>
      <trkpt lat="43.32642" lon="-1.9217">
        <ele>-150.30896</ele>
        <time>2011-11-13T09:26:18Z</time>
      </trkpt>
      <trkpt lat="43.3264" lon="-1.9217">
        <ele>-146.944458</ele>
        <time>2011-11-13T09:26:48Z</time>
      </trkpt>
      <trkpt lat="43.3264" lon="-1.9217">
        <ele>-144.0604248</ele>
        <time>2011-11-13T09:27:18Z</time>
      </trkpt>
      <trkpt lat="43.3264" lon="-1.9217">
        <ele>-141.6571045</ele>
        <time>2011-11-13T09:27:48Z</time>
      </trkpt>
      <trkpt lat="43.32658" lon="-1.92196">
        <ele>-140.2150879</ele>
        <time>2011-11-13T09:28:18Z</time>
      </trkpt>
      <trkpt lat="43.32682" lon="-1.92229">
        <ele>-138.7731934</ele>
        <time>2011-11-13T09:28:48Z</time>
      </trkpt>
      <trkpt lat="43.32705" lon="-1.92264">
        <ele>-136.8505859</ele>
        <time>2011-11-13T09:29:18Z</time>
      </trkpt>
      <trkpt lat="43.32724" lon="-1.92293">
        <ele>-134.4471436</ele>
        <time>2011-11-13T09:29:48Z</time>
      </trkpt>
      <trkpt lat="43.32746" lon="-1.92308">
        <ele>-132.0439453</ele>
        <time>2011-11-13T09:30:18Z</time>
      </trkpt>
      <trkpt lat="43.3278" lon="-1.92312">
        <ele>-130.1213379</ele>
        <time>2011-11-13T09:30:48Z</time>
      </trkpt>
      <trkpt lat="43.32815" lon="-1.92338">
        <ele>-126.276001</ele>
        <time>2011-11-13T09:31:18Z</time>
      </trkpt>
      <trkpt lat="43.32831" lon="-1.92379">
        <ele>-125.3146973</ele>
        <time>2011-11-13T09:31:48Z</time>
      </trkpt>
      <trkpt lat="43.32849" lon="-1.92427">
        <ele>-122.911377</ele>
        <time>2011-11-13T09:32:18Z</time>
      </trkpt>
      <trkpt lat="43.32851" lon="-1.92475">
        <ele>-122.911377</ele>
        <time>2011-11-13T09:32:48Z</time>
      </trkpt>
      <trkpt lat="43.32851" lon="-1.92519">
        <ele>-121.9501953</ele>
        <time>2011-11-13T09:33:18Z</time>
      </trkpt>
      <trkpt lat="43.32887" lon="-1.92549">
        <ele>-119.5467529</ele>
        <time>2011-11-13T09:33:48Z</time>
      </trkpt>
      <trkpt lat="43.32916" lon="-1.92586">
        <ele>-119.06604</ele>
        <time>2011-11-13T09:34:18Z</time>
      </trkpt>
      <trkpt lat="43.32956" lon="-1.92582">
        <ele>-118.1048584</ele>
        <time>2011-11-13T09:34:48Z</time>
      </trkpt>
      <trkpt lat="43.3299" lon="-1.92565">
        <ele>-121.4694824</ele>
        <time>2011-11-13T09:35:18Z</time>
      </trkpt>
      <trkpt lat="43.33035" lon="-1.92554">
        <ele>-119.5467529</ele>
        <time>2011-11-13T09:35:48Z</time>
      </trkpt>
      <trkpt lat="43.33073" lon="-1.92551">
        <ele>-117.1434326</ele>
        <time>2011-11-13T09:36:18Z</time>
      </trkpt>
      <trkpt lat="43.3311" lon="-1.92543">
        <ele>-114.2596436</ele>
        <time>2011-11-13T09:36:48Z</time>
      </trkpt>
      <trkpt lat="43.33145" lon="-1.92538">
        <ele>-111.8562012</ele>
        <time>2011-11-13T09:37:18Z</time>
      </trkpt>
      <trkpt lat="43.33178" lon="-1.92545">
        <ele>-108.4916992</ele>
        <time>2011-11-13T09:37:48Z</time>
      </trkpt>
      <trkpt lat="43.33188" lon="-1.92589">
        <ele>-102.7237549</ele>
        <time>2011-11-13T09:38:18Z</time>
      </trkpt>
      <trkpt lat="43.33193" lon="-1.92603">
        <ele>-95.0332031</ele>
        <time>2011-11-13T09:38:48Z</time>
      </trkpt>
      <trkpt lat="43.3319" lon="-1.9261">
        <ele>-87.8232422</ele>
        <time>2011-11-13T09:39:18Z</time>
      </trkpt>
      <trkpt lat="43.33183" lon="-1.92619">
        <ele>-79.6520996</ele>
        <time>2011-11-13T09:39:48Z</time>
      </trkpt>
      <trkpt lat="43.33176" lon="-1.92633">
        <ele>-73.8842773</ele>
        <time>2011-11-13T09:40:18Z</time>
      </trkpt>
      <trkpt lat="43.33184" lon="-1.92622">
        <ele>-66.6743164</ele>
        <time>2011-11-13T09:40:48Z</time>
      </trkpt>
      <trkpt lat="43.33178" lon="-1.92633">
        <ele>-64.2711182</ele>
        <time>2011-11-13T09:41:18Z</time>
      </trkpt>
      <trkpt lat="43.33173" lon="-1.92618">
        <ele>-57.0611572</ele>
        <time>2011-11-13T09:41:48Z</time>
      </trkpt>
      <trkpt lat="43.33161" lon="-1.92633">
        <ele>-51.7738037</ele>
        <time>2011-11-13T09:42:18Z</time>
      </trkpt>
      <trkpt lat="43.33155" lon="-1.92627">
        <ele>-44.083252</ele>
        <time>2011-11-13T09:42:48Z</time>
      </trkpt>
      <trkpt lat="43.33145" lon="-1.92627">
        <ele>-38.3153076</ele>
        <time>2011-11-13T09:43:18Z</time>
      </trkpt>
      <trkpt lat="43.33129" lon="-1.92638">
        <ele>-31.5861816</ele>
        <time>2011-11-13T09:43:48Z</time>
      </trkpt>
      <trkpt lat="43.33118" lon="-1.92656">
        <ele>-26.779541</ele>
        <time>2011-11-13T09:44:18Z</time>
      </trkpt>
      <trkpt lat="43.33108" lon="-1.92686">
        <ele>-21.4923096</ele>
        <time>2011-11-13T09:44:48Z</time>
      </trkpt>
      <trkpt lat="43.33101" lon="-1.92713">
        <ele>-15.2436523</ele>
        <time>2011-11-13T09:45:18Z</time>
      </trkpt>
      <trkpt lat="43.33094" lon="-1.92697">
        <ele>-9.956543</ele>
        <time>2011-11-13T09:45:48Z</time>
      </trkpt>
      <trkpt lat="43.33086" lon="-1.92713">
        <ele>-3.2272949</ele>
        <time>2011-11-13T09:46:18Z</time>
      </trkpt>
      <trkpt lat="43.33066" lon="-1.92704">
        <ele>-0.3433838</ele>
        <time>2011-11-13T09:46:48Z</time>
      </trkpt>
      <trkpt lat="43.33063" lon="-1.92725">
        <ele>-0.3433838</ele>
        <time>2011-11-13T09:47:18Z</time>
      </trkpt>
      <trkpt lat="43.33063" lon="-1.92725">
        <ele>0.618042</ele>
        <time>2011-11-13T09:47:48Z</time>
      </trkpt>
      <trkpt lat="43.33063" lon="-1.92725">
        <ele>2.5406494</ele>
        <time>2011-11-13T09:48:18Z</time>
      </trkpt>
      <trkpt lat="43.33058" lon="-1.92735">
        <ele>3.982666</ele>
        <time>2011-11-13T09:48:48Z</time>
      </trkpt>
      <trkpt lat="43.33049" lon="-1.92769">
        <ele>8.3085938</ele>
        <time>2011-11-13T09:49:18Z</time>
      </trkpt>
      <trkpt lat="43.33042" lon="-1.92805">
        <ele>15.5184326</ele>
        <time>2011-11-13T09:49:48Z</time>
      </trkpt>
      <trkpt lat="43.33052" lon="-1.9285">
        <ele>19.8443604</ele>
        <time>2011-11-13T09:50:18Z</time>
      </trkpt>
      <trkpt lat="43.33073" lon="-1.92893">
        <ele>22.7282715</ele>
        <time>2011-11-13T09:50:48Z</time>
      </trkpt>
      <trkpt lat="43.33102" lon="-1.92923">
        <ele>28.9769287</ele>
        <time>2011-11-13T09:51:18Z</time>
      </trkpt>
      <trkpt lat="43.33103" lon="-1.92962">
        <ele>29.4575195</ele>
        <time>2011-11-13T09:51:48Z</time>
      </trkpt>
      <trkpt lat="43.33114" lon="-1.93008">
        <ele>33.3028564</ele>
        <time>2011-11-13T09:52:18Z</time>
      </trkpt>
      <trkpt lat="43.33135" lon="-1.93047">
        <ele>36.1867676</ele>
        <time>2011-11-13T09:52:48Z</time>
      </trkpt>
      <trkpt lat="43.33135" lon="-1.9309">
        <ele>40.5128174</ele>
        <time>2011-11-13T09:53:18Z</time>
      </trkpt>
      <trkpt lat="43.33132" lon="-1.93134">
        <ele>43.8773193</ele>
        <time>2011-11-13T09:53:48Z</time>
      </trkpt>
      <trkpt lat="43.33161" lon="-1.9319">
        <ele>46.2806396</ele>
        <time>2011-11-13T09:54:18Z</time>
      </trkpt>
      <trkpt lat="43.33184" lon="-1.93232">
        <ele>48.68396</ele>
        <time>2011-11-13T09:54:48Z</time>
      </trkpt>
      <trkpt lat="43.33207" lon="-1.93268">
        <ele>50.1259766</ele>
        <time>2011-11-13T09:55:18Z</time>
      </trkpt>
      <trkpt lat="43.33223" lon="-1.93307">
        <ele>48.2033691</ele>
        <time>2011-11-13T09:55:48Z</time>
      </trkpt>
      <trkpt lat="43.33253" lon="-1.93336">
        <ele>48.2033691</ele>
        <time>2011-11-13T09:56:18Z</time>
      </trkpt>
      <trkpt lat="43.33289" lon="-1.9336">
        <ele>46.7612305</ele>
        <time>2011-11-13T09:56:48Z</time>
      </trkpt>
      <trkpt lat="43.3332" lon="-1.93389">
        <ele>44.838623</ele>
        <time>2011-11-13T09:57:18Z</time>
      </trkpt>
      <trkpt lat="43.33344" lon="-1.93412">
        <ele>42.9160156</ele>
        <time>2011-11-13T09:57:48Z</time>
      </trkpt>
      <trkpt lat="43.33341" lon="-1.93441">
        <ele>44.838623</ele>
        <time>2011-11-13T09:58:18Z</time>
      </trkpt>
      <trkpt lat="43.3334" lon="-1.93484">
        <ele>39.5512695</ele>
        <time>2011-11-13T09:58:48Z</time>
      </trkpt>
      <trkpt lat="43.33327" lon="-1.93524">
        <ele>36.6674805</ele>
        <time>2011-11-13T09:59:18Z</time>
      </trkpt>
      <trkpt lat="43.33315" lon="-1.93567">
        <ele>36.1867676</ele>
        <time>2011-11-13T09:59:48Z</time>
      </trkpt>
      <trkpt lat="43.33287" lon="-1.93598">
        <ele>35.7060547</ele>
        <time>2011-11-13T10:00:18Z</time>
      </trkpt>
      <trkpt lat="43.3326" lon="-1.93628">
        <ele>29.9381104</ele>
        <time>2011-11-13T10:00:48Z</time>
      </trkpt>
      <trkpt lat="43.33229" lon="-1.9363">
        <ele>28.9769287</ele>
        <time>2011-11-13T10:01:18Z</time>
      </trkpt>
      <trkpt lat="43.33205" lon="-1.93638">
        <ele>30.8995361</ele>
        <time>2011-11-13T10:01:48Z</time>
      </trkpt>
      <trkpt lat="43.33204" lon="-1.93654">
        <ele>32.3415527</ele>
        <time>2011-11-13T10:02:18Z</time>
      </trkpt>
      <trkpt lat="43.33228" lon="-1.93673">
        <ele>32.3415527</ele>
        <time>2011-11-13T10:02:48Z</time>
      </trkpt>
      <trkpt lat="43.3323" lon="-1.9368">
        <ele>31.380127</ele>
        <time>2011-11-13T10:03:18Z</time>
      </trkpt>
      <trkpt lat="43.33231" lon="-1.93678">
        <ele>32.3415527</ele>
        <time>2011-11-13T10:03:48Z</time>
      </trkpt>
      <trkpt lat="43.33217" lon="-1.93674">
        <ele>34.744873</ele>
        <time>2011-11-13T10:04:18Z</time>
      </trkpt>
      <trkpt lat="43.33217" lon="-1.93675">
        <ele>35.2254639</ele>
        <time>2011-11-13T10:04:48Z</time>
      </trkpt>
      <trkpt lat="43.33246" lon="-1.9369">
        <ele>35.2254639</ele>
        <time>2011-11-13T10:05:18Z</time>
      </trkpt>
      <trkpt lat="43.33269" lon="-1.93729">
        <ele>37.6286621</ele>
        <time>2011-11-13T10:05:48Z</time>
      </trkpt>
      <trkpt lat="43.33262" lon="-1.93779">
        <ele>36.1867676</ele>
        <time>2011-11-13T10:06:18Z</time>
      </trkpt>
      <trkpt lat="43.33292" lon="-1.93803">
        <ele>39.0706787</ele>
        <time>2011-11-13T10:06:48Z</time>
      </trkpt>
      <trkpt lat="43.33315" lon="-1.93845">
        <ele>38.109375</ele>
        <time>2011-11-13T10:07:18Z</time>
      </trkpt>
      <trkpt lat="43.33316" lon="-1.93902">
        <ele>39.0706787</ele>
        <time>2011-11-13T10:07:48Z</time>
      </trkpt>
      <trkpt lat="43.33323" lon="-1.93951">
        <ele>39.5512695</ele>
        <time>2011-11-13T10:08:18Z</time>
      </trkpt>
      <trkpt lat="43.33295" lon="-1.93979">
        <ele>36.1867676</ele>
        <time>2011-11-13T10:08:48Z</time>
      </trkpt>
      <trkpt lat="43.33318" lon="-1.94012">
        <ele>40.5128174</ele>
        <time>2011-11-13T10:09:18Z</time>
      </trkpt>
      <trkpt lat="43.33334" lon="-1.94039">
        <ele>44.838623</ele>
        <time>2011-11-13T10:09:48Z</time>
      </trkpt>
      <trkpt lat="43.33321" lon="-1.94068">
        <ele>51.0871582</ele>
        <time>2011-11-13T10:10:18Z</time>
      </trkpt>
      <trkpt lat="43.33303" lon="-1.94114">
        <ele>47.7225342</ele>
        <time>2011-11-13T10:10:48Z</time>
      </trkpt>
      <trkpt lat="43.33275" lon="-1.94149">
        <ele>47.7225342</ele>
        <time>2011-11-13T10:11:18Z</time>
      </trkpt>
      <trkpt lat="43.33255" lon="-1.9418">
        <ele>50.1259766</ele>
        <time>2011-11-13T10:11:48Z</time>
      </trkpt>
      <trkpt lat="43.33232" lon="-1.94202">
        <ele>52.048584</ele>
        <time>2011-11-13T10:12:18Z</time>
      </trkpt>
      <trkpt lat="43.33212" lon="-1.9422">
        <ele>47.2418213</ele>
        <time>2011-11-13T10:12:48Z</time>
      </trkpt>
      <trkpt lat="43.33188" lon="-1.94225">
        <ele>42.4354248</ele>
        <time>2011-11-13T10:13:18Z</time>
      </trkpt>
      <trkpt lat="43.33173" lon="-1.94275">
        <ele>42.4354248</ele>
        <time>2011-11-13T10:13:48Z</time>
      </trkpt>
      <trkpt lat="43.33152" lon="-1.94318">
        <ele>43.3966064</ele>
        <time>2011-11-13T10:14:18Z</time>
      </trkpt>
      <trkpt lat="43.33125" lon="-1.94331">
        <ele>48.2033691</ele>
        <time>2011-11-13T10:14:48Z</time>
      </trkpt>
      <trkpt lat="43.331" lon="-1.9436">
        <ele>49.6452637</ele>
        <time>2011-11-13T10:15:18Z</time>
      </trkpt>
      <trkpt lat="43.33066" lon="-1.94375">
        <ele>47.7225342</ele>
        <time>2011-11-13T10:15:48Z</time>
      </trkpt>
      <trkpt lat="43.33057" lon="-1.94423">
        <ele>47.2418213</ele>
        <time>2011-11-13T10:16:18Z</time>
      </trkpt>
      <trkpt lat="43.33033" lon="-1.94431">
        <ele>48.68396</ele>
        <time>2011-11-13T10:16:48Z</time>
      </trkpt>
      <trkpt lat="43.33025" lon="-1.94452">
        <ele>52.048584</ele>
        <time>2011-11-13T10:17:18Z</time>
      </trkpt>
      <trkpt lat="43.33028" lon="-1.9449">
        <ele>56.8551025</ele>
        <time>2011-11-13T10:17:48Z</time>
      </trkpt>
      <trkpt lat="43.33003" lon="-1.94508">
        <ele>59.2584229</ele>
        <time>2011-11-13T10:18:18Z</time>
      </trkpt>
      <trkpt lat="43.32979" lon="-1.94512">
        <ele>63.1036377</ele>
        <time>2011-11-13T10:18:48Z</time>
      </trkpt>
      <trkpt lat="43.32952" lon="-1.94512">
        <ele>67.4296875</ele>
        <time>2011-11-13T10:19:18Z</time>
      </trkpt>
      <trkpt lat="43.32922" lon="-1.94526">
        <ele>70.7941895</ele>
        <time>2011-11-13T10:19:48Z</time>
      </trkpt>
      <trkpt lat="43.32895" lon="-1.94536">
        <ele>75.6008301</ele>
        <time>2011-11-13T10:20:18Z</time>
      </trkpt>
      <trkpt lat="43.32878" lon="-1.94561">
        <ele>78.4847412</ele>
        <time>2011-11-13T10:20:48Z</time>
      </trkpt>
      <trkpt lat="43.32874" lon="-1.94592">
        <ele>83.7719727</ele>
        <time>2011-11-13T10:21:18Z</time>
      </trkpt>
      <trkpt lat="43.32882" lon="-1.946">
        <ele>82.810791</ele>
        <time>2011-11-13T10:21:48Z</time>
      </trkpt>
      <trkpt lat="43.32887" lon="-1.94607">
        <ele>82.810791</ele>
        <time>2011-11-13T10:22:18Z</time>
      </trkpt>
      <trkpt lat="43.32894" lon="-1.94638">
        <ele>79.4460449</ele>
        <time>2011-11-13T10:22:48Z</time>
      </trkpt>
      <trkpt lat="43.32925" lon="-1.9464">
        <ele>76.0814209</ele>
        <time>2011-11-13T10:23:18Z</time>
      </trkpt>
      <trkpt lat="43.32944" lon="-1.9466">
        <ele>72.7169189</ele>
        <time>2011-11-13T10:23:48Z</time>
      </trkpt>
      <trkpt lat="43.32941" lon="-1.94702">
        <ele>69.8328857</ele>
        <time>2011-11-13T10:24:18Z</time>
      </trkpt>
      <trkpt lat="43.32974" lon="-1.94737">
        <ele>69.8328857</ele>
        <time>2011-11-13T10:24:48Z</time>
      </trkpt>
      <trkpt lat="43.3301" lon="-1.94745">
        <ele>65.5070801</ele>
        <time>2011-11-13T10:25:18Z</time>
      </trkpt>
      <trkpt lat="43.33019" lon="-1.9475">
        <ele>64.5456543</ele>
        <time>2011-11-13T10:25:48Z</time>
      </trkpt>
      <trkpt lat="43.33026" lon="-1.94749">
        <ele>64.0650635</ele>
        <time>2011-11-13T10:26:18Z</time>
      </trkpt>
      <trkpt lat="43.33054" lon="-1.94751">
        <ele>56.8551025</ele>
        <time>2011-11-13T10:26:48Z</time>
      </trkpt>
      <trkpt lat="43.33072" lon="-1.94769">
        <ele>53.9711914</ele>
        <time>2011-11-13T10:27:18Z</time>
      </trkpt>
      <trkpt lat="43.33066" lon="-1.94796">
        <ele>52.048584</ele>
        <time>2011-11-13T10:27:48Z</time>
      </trkpt>
      <trkpt lat="43.33066" lon="-1.94832">
        <ele>48.2033691</ele>
        <time>2011-11-13T10:28:18Z</time>
      </trkpt>
      <trkpt lat="43.33071" lon="-1.94847">
        <ele>42.4354248</ele>
        <time>2011-11-13T10:28:48Z</time>
      </trkpt>
      <trkpt lat="43.33081" lon="-1.94866">
        <ele>41.9547119</ele>
        <time>2011-11-13T10:29:18Z</time>
      </trkpt>
      <trkpt lat="43.33075" lon="-1.94908">
        <ele>40.5128174</ele>
        <time>2011-11-13T10:29:48Z</time>
      </trkpt>
      <trkpt lat="43.33072" lon="-1.94941">
        <ele>37.1480713</ele>
        <time>2011-11-13T10:30:18Z</time>
      </trkpt>
      <trkpt lat="43.33074" lon="-1.94977">
        <ele>32.3415527</ele>
        <time>2011-11-13T10:30:48Z</time>
      </trkpt>
      <trkpt lat="43.3307" lon="-1.95018">
        <ele>30.8995361</ele>
        <time>2011-11-13T10:31:18Z</time>
      </trkpt>
      <trkpt lat="43.33096" lon="-1.95062">
        <ele>31.380127</ele>
        <time>2011-11-13T10:31:48Z</time>
      </trkpt>
      <trkpt lat="43.33098" lon="-1.95087">
        <ele>34.2641602</ele>
        <time>2011-11-13T10:32:18Z</time>
      </trkpt>
      <trkpt lat="43.3311" lon="-1.95126">
        <ele>35.2254639</ele>
        <time>2011-11-13T10:32:48Z</time>
      </trkpt>
      <trkpt lat="43.33124" lon="-1.95152">
        <ele>34.744873</ele>
        <time>2011-11-13T10:33:18Z</time>
      </trkpt>
      <trkpt lat="43.33143" lon="-1.95191">
        <ele>37.1480713</ele>
        <time>2011-11-13T10:33:48Z</time>
      </trkpt>
      <trkpt lat="43.33149" lon="-1.95226">
        <ele>37.6286621</ele>
        <time>2011-11-13T10:34:18Z</time>
      </trkpt>
      <trkpt lat="43.33179" lon="-1.95242">
        <ele>41.473999</ele>
        <time>2011-11-13T10:34:48Z</time>
      </trkpt>
      <trkpt lat="43.33178" lon="-1.95272">
        <ele>47.7225342</ele>
        <time>2011-11-13T10:35:18Z</time>
      </trkpt>
      <trkpt lat="43.33196" lon="-1.95291">
        <ele>50.6065674</ele>
        <time>2011-11-13T10:35:48Z</time>
      </trkpt>
      <trkpt lat="43.33187" lon="-1.95319">
        <ele>54.4517822</ele>
        <time>2011-11-13T10:36:18Z</time>
      </trkpt>
      <trkpt lat="43.33204" lon="-1.95367">
        <ele>57.3358154</ele>
        <time>2011-11-13T10:36:48Z</time>
      </trkpt>
      <trkpt lat="43.33256" lon="-1.95398">
        <ele>61.1810303</ele>
        <time>2011-11-13T10:37:18Z</time>
      </trkpt>
      <trkpt lat="43.33258" lon="-1.95436">
        <ele>65.5070801</ele>
        <time>2011-11-13T10:37:48Z</time>
      </trkpt>
      <trkpt lat="43.33258" lon="-1.95437">
        <ele>65.9876709</ele>
        <time>2011-11-13T10:38:18Z</time>
      </trkpt>
      <trkpt lat="43.33257" lon="-1.95485">
        <ele>67.4296875</ele>
        <time>2011-11-13T10:38:48Z</time>
      </trkpt>
      <trkpt lat="43.33275" lon="-1.95512">
        <ele>71.2749023</ele>
        <time>2011-11-13T10:39:18Z</time>
      </trkpt>
      <trkpt lat="43.33273" lon="-1.95567">
        <ele>77.5234375</ele>
        <time>2011-11-13T10:39:48Z</time>
      </trkpt>
      <trkpt lat="43.33236" lon="-1.95626">
        <ele>78.4847412</ele>
        <time>2011-11-13T10:40:18Z</time>
      </trkpt>
      <trkpt lat="43.33253" lon="-1.95641">
        <ele>79.9266357</ele>
        <time>2011-11-13T10:40:48Z</time>
      </trkpt>
      <trkpt lat="43.33234" lon="-1.9567">
        <ele>79.4460449</ele>
        <time>2011-11-13T10:41:18Z</time>
      </trkpt>
      <trkpt lat="43.332" lon="-1.95701">
        <ele>76.5621338</ele>
        <time>2011-11-13T10:41:48Z</time>
      </trkpt>
      <trkpt lat="43.33188" lon="-1.95718">
        <ele>76.5621338</ele>
        <time>2011-11-13T10:42:18Z</time>
      </trkpt>
      <trkpt lat="43.33193" lon="-1.95738">
        <ele>78.4847412</ele>
        <time>2011-11-13T10:42:48Z</time>
      </trkpt>
      <trkpt lat="43.33219" lon="-1.95756">
        <ele>77.0428467</ele>
        <time>2011-11-13T10:43:18Z</time>
      </trkpt>
      <trkpt lat="43.33353" lon="-1.95781">
        <ele>75.6008301</ele>
        <time>2011-11-13T10:43:48Z</time>
      </trkpt>
      <trkpt lat="43.33339" lon="-1.95805">
        <ele>71.2749023</ele>
        <time>2011-11-13T10:44:18Z</time>
      </trkpt>
      <trkpt lat="43.33335" lon="-1.95828">
        <ele>66.4682617</ele>
        <time>2011-11-13T10:44:48Z</time>
      </trkpt>
      <trkpt lat="43.33349" lon="-1.95864">
        <ele>67.4296875</ele>
        <time>2011-11-13T10:45:18Z</time>
      </trkpt>
      <trkpt lat="43.33385" lon="-1.95892">
        <ele>63.1036377</ele>
        <time>2011-11-13T10:45:48Z</time>
      </trkpt>
      <trkpt lat="43.33392" lon="-1.95937">
        <ele>63.5843506</ele>
        <time>2011-11-13T10:46:18Z</time>
      </trkpt>
      <trkpt lat="43.33402" lon="-1.95983">
        <ele>66.9489746</ele>
        <time>2011-11-13T10:46:48Z</time>
      </trkpt>
      <trkpt lat="43.33432" lon="-1.96003">
        <ele>72.2362061</ele>
        <time>2011-11-13T10:47:18Z</time>
      </trkpt>
      <trkpt lat="43.33461" lon="-1.96015">
        <ele>78.0040283</ele>
        <time>2011-11-13T10:47:48Z</time>
      </trkpt>
      <trkpt lat="43.33476" lon="-1.96025">
        <ele>81.8493652</ele>
        <time>2011-11-13T10:48:18Z</time>
      </trkpt>
      <trkpt lat="43.33498" lon="-1.96047">
        <ele>85.2139893</ele>
        <time>2011-11-13T10:48:48Z</time>
      </trkpt>
      <trkpt lat="43.3351" lon="-1.96041">
        <ele>86.175293</ele>
        <time>2011-11-13T10:49:18Z</time>
      </trkpt>
      <trkpt lat="43.33527" lon="-1.96041">
        <ele>86.6560059</ele>
        <time>2011-11-13T10:49:48Z</time>
      </trkpt>
      <trkpt lat="43.33527" lon="-1.96041">
        <ele>86.6560059</ele>
        <time>2011-11-13T10:50:18Z</time>
      </trkpt>
      <trkpt lat="43.33527" lon="-1.96041">
        <ele>87.1365967</ele>
        <time>2011-11-13T10:50:48Z</time>
      </trkpt>
      <trkpt lat="43.33523" lon="-1.96051">
        <ele>86.175293</ele>
        <time>2011-11-13T10:51:18Z</time>
      </trkpt>
      <trkpt lat="43.33514" lon="-1.96082">
        <ele>78.9654541</ele>
        <time>2011-11-13T10:51:48Z</time>
      </trkpt>
      <trkpt lat="43.33515" lon="-1.9611">
        <ele>73.6782227</ele>
        <time>2011-11-13T10:52:18Z</time>
      </trkpt>
      <trkpt lat="43.33511" lon="-1.96146">
        <ele>67.4296875</ele>
        <time>2011-11-13T10:52:48Z</time>
      </trkpt>
      <trkpt lat="43.33513" lon="-1.96193">
        <ele>64.5456543</ele>
        <time>2011-11-13T10:53:18Z</time>
      </trkpt>
      <trkpt lat="43.33504" lon="-1.96218">
        <ele>71.2749023</ele>
        <time>2011-11-13T10:53:48Z</time>
      </trkpt>
      <trkpt lat="43.33484" lon="-1.96249">
        <ele>70.7941895</ele>
        <time>2011-11-13T10:54:18Z</time>
      </trkpt>
      <trkpt lat="43.33464" lon="-1.9626">
        <ele>65.0263672</ele>
        <time>2011-11-13T10:54:48Z</time>
      </trkpt>
      <trkpt lat="43.33472" lon="-1.96284">
        <ele>61.6617432</ele>
        <time>2011-11-13T10:55:18Z</time>
      </trkpt>
      <trkpt lat="43.33497" lon="-1.96318">
        <ele>57.8165283</ele>
        <time>2011-11-13T10:55:48Z</time>
      </trkpt>
      <trkpt lat="43.33498" lon="-1.96322">
        <ele>57.3358154</ele>
        <time>2011-11-13T10:56:18Z</time>
      </trkpt>
      <trkpt lat="43.33489" lon="-1.96347">
        <ele>56.3745117</ele>
        <time>2011-11-13T10:56:48Z</time>
      </trkpt>
      <trkpt lat="43.33472" lon="-1.96372">
        <ele>54.932373</ele>
        <time>2011-11-13T10:57:18Z</time>
      </trkpt>
      <trkpt lat="43.33451" lon="-1.9638">
        <ele>60.2197266</ele>
        <time>2011-11-13T10:57:48Z</time>
      </trkpt>
      <trkpt lat="43.33445" lon="-1.96405">
        <ele>61.1810303</ele>
        <time>2011-11-13T10:58:18Z</time>
      </trkpt>
      <trkpt lat="43.3345" lon="-1.96444">
        <ele>60.2197266</ele>
        <time>2011-11-13T10:58:48Z</time>
      </trkpt>
      <trkpt lat="43.33443" lon="-1.96459">
        <ele>60.2197266</ele>
        <time>2011-11-13T10:59:18Z</time>
      </trkpt>
      <trkpt lat="43.33435" lon="-1.96475">
        <ele>62.6229248</ele>
        <time>2011-11-13T10:59:48Z</time>
      </trkpt>
      <trkpt lat="43.33428" lon="-1.96487">
        <ele>64.5456543</ele>
        <time>2011-11-13T11:00:18Z</time>
      </trkpt>
      <trkpt lat="43.33438" lon="-1.96522">
        <ele>69.3522949</ele>
        <time>2011-11-13T11:00:48Z</time>
      </trkpt>
      <trkpt lat="43.3344" lon="-1.96551">
        <ele>70.3134766</ele>
        <time>2011-11-13T11:01:18Z</time>
      </trkpt>
      <trkpt lat="43.3344" lon="-1.96549">
        <ele>70.7941895</ele>
        <time>2011-11-13T11:01:48Z</time>
      </trkpt>
      <trkpt lat="43.33438" lon="-1.96551">
        <ele>70.7941895</ele>
        <time>2011-11-13T11:02:18Z</time>
      </trkpt>
      <trkpt lat="43.33438" lon="-1.96551">
        <ele>71.7554932</ele>
        <time>2011-11-13T11:02:48Z</time>
      </trkpt>
      <trkpt lat="43.33438" lon="-1.96522">
        <ele>70.3134766</ele>
        <time>2011-11-13T11:03:18Z</time>
      </trkpt>
      <trkpt lat="43.33424" lon="-1.96495">
        <ele>72.7169189</ele>
        <time>2011-11-13T11:03:48Z</time>
      </trkpt>
      <trkpt lat="43.3341" lon="-1.96473">
        <ele>78.0040283</ele>
        <time>2011-11-13T11:04:18Z</time>
      </trkpt>
      <trkpt lat="43.33399" lon="-1.96454">
        <ele>83.2913818</ele>
        <time>2011-11-13T11:04:48Z</time>
      </trkpt>
      <trkpt lat="43.33393" lon="-1.96449">
        <ele>85.6945801</ele>
        <time>2011-11-13T11:05:18Z</time>
      </trkpt>
      <trkpt lat="43.33387" lon="-1.96435">
        <ele>89.0593262</ele>
        <time>2011-11-13T11:05:48Z</time>
      </trkpt>
      <trkpt lat="43.33366" lon="-1.96412">
        <ele>92.4239502</ele>
        <time>2011-11-13T11:06:18Z</time>
      </trkpt>
      <trkpt lat="43.3334" lon="-1.96406">
        <ele>97.7111816</ele>
        <time>2011-11-13T11:06:48Z</time>
      </trkpt>
      <trkpt lat="43.33315" lon="-1.96393">
        <ele>100.5950928</ele>
        <time>2011-11-13T11:07:18Z</time>
      </trkpt>
      <trkpt lat="43.33303" lon="-1.96356">
        <ele>103.4790039</ele>
        <time>2011-11-13T11:07:48Z</time>
      </trkpt>
      <trkpt lat="43.33304" lon="-1.96363">
        <ele>106.3630371</ele>
        <time>2011-11-13T11:08:18Z</time>
      </trkpt>
      <trkpt lat="43.33318" lon="-1.96405">
        <ele>110.208252</ele>
        <time>2011-11-13T11:08:48Z</time>
      </trkpt>
      <trkpt lat="43.33327" lon="-1.96427">
        <ele>113.572998</ele>
        <time>2011-11-13T11:09:18Z</time>
      </trkpt>
      <trkpt lat="43.33339" lon="-1.96458">
        <ele>115.9761963</ele>
        <time>2011-11-13T11:09:48Z</time>
      </trkpt>
      <trkpt lat="43.33348" lon="-1.96489">
        <ele>121.2635498</ele>
        <time>2011-11-13T11:10:18Z</time>
      </trkpt>
      <trkpt lat="43.33341" lon="-1.96513">
        <ele>125.5893555</ele>
        <time>2011-11-13T11:10:48Z</time>
      </trkpt>
      <trkpt lat="43.33324" lon="-1.96536">
        <ele>129.4346924</ele>
        <time>2011-11-13T11:11:18Z</time>
      </trkpt>
      <trkpt lat="43.33296" lon="-1.9655">
        <ele>131.8378906</ele>
        <time>2011-11-13T11:11:48Z</time>
      </trkpt>
      <trkpt lat="43.33276" lon="-1.96581">
        <ele>133.760498</ele>
        <time>2011-11-13T11:12:18Z</time>
      </trkpt>
      <trkpt lat="43.33272" lon="-1.96611">
        <ele>128.4733887</ele>
        <time>2011-11-13T11:12:48Z</time>
      </trkpt>
      <trkpt lat="43.33282" lon="-1.96649">
        <ele>126.5506592</ele>
        <time>2011-11-13T11:13:18Z</time>
      </trkpt>
      <trkpt lat="43.33292" lon="-1.9668">
        <ele>124.6280518</ele>
        <time>2011-11-13T11:13:48Z</time>
      </trkpt>
      <trkpt lat="43.33267" lon="-1.96703">
        <ele>122.7054443</ele>
        <time>2011-11-13T11:14:18Z</time>
      </trkpt>
      <trkpt lat="43.33254" lon="-1.96743">
        <ele>123.666748</ele>
        <time>2011-11-13T11:14:48Z</time>
      </trkpt>
      <trkpt lat="43.3325" lon="-1.96781">
        <ele>122.7054443</ele>
        <time>2011-11-13T11:15:18Z</time>
      </trkpt>
      <trkpt lat="43.33236" lon="-1.96798">
        <ele>117.4182129</ele>
        <time>2011-11-13T11:15:48Z</time>
      </trkpt>
      <trkpt lat="43.33233" lon="-1.9681">
        <ele>114.5341797</ele>
        <time>2011-11-13T11:16:18Z</time>
      </trkpt>
      <trkpt lat="43.33233" lon="-1.9681">
        <ele>114.0535889</ele>
        <time>2011-11-13T11:16:48Z</time>
      </trkpt>
      <trkpt lat="43.33229" lon="-1.96818">
        <ele>115.0148926</ele>
        <time>2011-11-13T11:17:18Z</time>
      </trkpt>
      <trkpt lat="43.33214" lon="-1.9683">
        <ele>108.2856445</ele>
        <time>2011-11-13T11:17:48Z</time>
      </trkpt>
      <trkpt lat="43.33193" lon="-1.9685">
        <ele>102.0371094</ele>
        <time>2011-11-13T11:18:18Z</time>
      </trkpt>
      <trkpt lat="43.33188" lon="-1.9687">
        <ele>99.1530762</ele>
        <time>2011-11-13T11:18:48Z</time>
      </trkpt>
      <trkpt lat="43.33226" lon="-1.9688">
        <ele>99.6337891</ele>
        <time>2011-11-13T11:19:18Z</time>
      </trkpt>
      <trkpt lat="43.33252" lon="-1.96887">
        <ele>100.5950928</ele>
        <time>2011-11-13T11:19:48Z</time>
      </trkpt>
      <trkpt lat="43.33273" lon="-1.96893">
        <ele>101.0756836</ele>
        <time>2011-11-13T11:20:18Z</time>
      </trkpt>
      <trkpt lat="43.33281" lon="-1.96908">
        <ele>95.3077393</ele>
        <time>2011-11-13T11:20:48Z</time>
      </trkpt>
      <trkpt lat="43.33287" lon="-1.96914">
        <ele>92.904541</ele>
        <time>2011-11-13T11:21:18Z</time>
      </trkpt>
      <trkpt lat="43.33294" lon="-1.96917">
        <ele>91.9432373</ele>
        <time>2011-11-13T11:21:48Z</time>
      </trkpt>
      <trkpt lat="43.33294" lon="-1.9692">
        <ele>90.9819336</ele>
        <time>2011-11-13T11:22:18Z</time>
      </trkpt>
      <trkpt lat="43.3329" lon="-1.96929">
        <ele>86.6560059</ele>
        <time>2011-11-13T11:22:48Z</time>
      </trkpt>
      <trkpt lat="43.33296" lon="-1.96937">
        <ele>84.2526855</ele>
        <time>2011-11-13T11:23:18Z</time>
      </trkpt>
      <trkpt lat="43.33305" lon="-1.96954">
        <ele>78.4847412</ele>
        <time>2011-11-13T11:23:48Z</time>
      </trkpt>
      <trkpt lat="43.33314" lon="-1.96956">
        <ele>78.0040283</ele>
        <time>2011-11-13T11:24:18Z</time>
      </trkpt>
      <trkpt lat="43.33315" lon="-1.96955">
        <ele>78.4847412</ele>
        <time>2011-11-13T11:24:48Z</time>
      </trkpt>
      <trkpt lat="43.33313" lon="-1.96956">
        <ele>78.9654541</ele>
        <time>2011-11-13T11:25:18Z</time>
      </trkpt>
      <trkpt lat="43.33313" lon="-1.96956">
        <ele>77.5234375</ele>
        <time>2011-11-13T11:25:48Z</time>
      </trkpt>
      <trkpt lat="43.33313" lon="-1.96956">
        <ele>78.4847412</ele>
        <time>2011-11-13T11:26:18Z</time>
      </trkpt>
      <trkpt lat="43.33313" lon="-1.96956">
        <ele>78.4847412</ele>
        <time>2011-11-13T11:26:48Z</time>
      </trkpt>
      <trkpt lat="43.33313" lon="-1.96956">
        <ele>78.4847412</ele>
        <time>2011-11-13T11:27:18Z</time>
      </trkpt>
      <trkpt lat="43.33313" lon="-1.96956">
        <ele>78.4847412</ele>
        <time>2011-11-13T11:27:48Z</time>
      </trkpt>
      <trkpt lat="43.33313" lon="-1.96956">
        <ele>78.0040283</ele>
        <time>2011-11-13T11:28:18Z</time>
      </trkpt>
      <trkpt lat="43.33313" lon="-1.96956">
        <ele>78.4847412</ele>
        <time>2011-11-13T11:28:48Z</time>
      </trkpt>
      <trkpt lat="43.33313" lon="-1.96956">
        <ele>77.5234375</ele>
        <time>2011-11-13T11:29:18Z</time>
      </trkpt>
      <trkpt lat="43.33313" lon="-1.96956">
        <ele>78.4847412</ele>
        <time>2011-11-13T11:29:48Z</time>
      </trkpt>
      <trkpt lat="43.33313" lon="-1.96956">
        <ele>78.9654541</ele>
        <time>2011-11-13T11:30:18Z</time>
      </trkpt>
      <trkpt lat="43.33313" lon="-1.96956">
        <ele>78.9654541</ele>
        <time>2011-11-13T11:30:48Z</time>
      </trkpt>
      <trkpt lat="43.33313" lon="-1.96956">
        <ele>78.9654541</ele>
        <time>2011-11-13T11:31:18Z</time>
      </trkpt>
      <trkpt lat="43.33313" lon="-1.96956">
        <ele>78.9654541</ele>
        <time>2011-11-13T11:31:48Z</time>
      </trkpt>
      <trkpt lat="43.33313" lon="-1.96957">
        <ele>79.9266357</ele>
        <time>2011-11-13T11:32:18Z</time>
      </trkpt>
      <trkpt lat="43.33313" lon="-1.96957">
        <ele>79.9266357</ele>
        <time>2011-11-13T11:32:48Z</time>
      </trkpt>
      <trkpt lat="43.33313" lon="-1.96957">
        <ele>79.9266357</ele>
        <time>2011-11-13T11:33:18Z</time>
      </trkpt>
      <trkpt lat="43.33313" lon="-1.96957">
        <ele>79.9266357</ele>
        <time>2011-11-13T11:33:48Z</time>
      </trkpt>
      <trkpt lat="43.33313" lon="-1.96957">
        <ele>79.9266357</ele>
        <time>2011-11-13T11:34:18Z</time>
      </trkpt>
      <trkpt lat="43.33313" lon="-1.96957">
        <ele>80.8881836</ele>
        <time>2011-11-13T11:34:48Z</time>
      </trkpt>
      <trkpt lat="43.33313" lon="-1.96957">
        <ele>80.4074707</ele>
        <time>2011-11-13T11:35:18Z</time>
      </trkpt>
      <trkpt lat="43.33313" lon="-1.96957">
        <ele>80.8881836</ele>
        <time>2011-11-13T11:35:48Z</time>
      </trkpt>
      <trkpt lat="43.33313" lon="-1.96957">
        <ele>80.8881836</ele>
        <time>2011-11-13T11:36:18Z</time>
      </trkpt>
      <trkpt lat="43.33313" lon="-1.96957">
        <ele>82.810791</ele>
        <time>2011-11-13T11:36:48Z</time>
      </trkpt>
      <trkpt lat="43.33314" lon="-1.96957">
        <ele>81.3687744</ele>
        <time>2011-11-13T11:37:18Z</time>
      </trkpt>
      <trkpt lat="43.33314" lon="-1.96957">
        <ele>81.8493652</ele>
        <time>2011-11-13T11:37:48Z</time>
      </trkpt>
      <trkpt lat="43.33314" lon="-1.96957">
        <ele>81.8493652</ele>
        <time>2011-11-13T11:38:18Z</time>
      </trkpt>
      <trkpt lat="43.33314" lon="-1.96957">
        <ele>81.8493652</ele>
        <time>2011-11-13T11:38:48Z</time>
      </trkpt>
      <trkpt lat="43.33314" lon="-1.96957">
        <ele>82.3300781</ele>
        <time>2011-11-13T11:39:18Z</time>
      </trkpt>
      <trkpt lat="43.33314" lon="-1.96957">
        <ele>82.3300781</ele>
        <time>2011-11-13T11:39:48Z</time>
      </trkpt>
      <trkpt lat="43.33314" lon="-1.96957">
        <ele>82.810791</ele>
        <time>2011-11-13T11:40:18Z</time>
      </trkpt>
      <trkpt lat="43.33314" lon="-1.96957">
        <ele>83.2913818</ele>
        <time>2011-11-13T11:40:48Z</time>
      </trkpt>
      <trkpt lat="43.33314" lon="-1.96957">
        <ele>83.2913818</ele>
        <time>2011-11-13T11:41:18Z</time>
      </trkpt>
      <trkpt lat="43.33314" lon="-1.96957">
        <ele>83.2913818</ele>
        <time>2011-11-13T11:41:48Z</time>
      </trkpt>
      <trkpt lat="43.33314" lon="-1.96957">
        <ele>83.7719727</ele>
        <time>2011-11-13T11:42:18Z</time>
      </trkpt>
      <trkpt lat="43.33314" lon="-1.96957">
        <ele>83.7719727</ele>
        <time>2011-11-13T11:42:48Z</time>
      </trkpt>
      <trkpt lat="43.33314" lon="-1.96957">
        <ele>84.2526855</ele>
        <time>2011-11-13T11:43:18Z</time>
      </trkpt>
      <trkpt lat="43.33314" lon="-1.96957">
        <ele>84.2526855</ele>
        <time>2011-11-13T11:43:48Z</time>
      </trkpt>
      <trkpt lat="43.33314" lon="-1.96956">
        <ele>84.7333984</ele>
        <time>2011-11-13T11:44:18Z</time>
      </trkpt>
      <trkpt lat="43.33314" lon="-1.96956">
        <ele>84.7333984</ele>
        <time>2011-11-13T11:44:48Z</time>
      </trkpt>
      <trkpt lat="43.33314" lon="-1.96956">
        <ele>84.7333984</ele>
        <time>2011-11-13T11:45:18Z</time>
      </trkpt>
      <trkpt lat="43.33314" lon="-1.96956">
        <ele>84.7333984</ele>
        <time>2011-11-13T11:45:48Z</time>
      </trkpt>
      <trkpt lat="43.33314" lon="-1.96956">
        <ele>84.2526855</ele>
        <time>2011-11-13T11:46:18Z</time>
      </trkpt>
      <trkpt lat="43.33314" lon="-1.96956">
        <ele>85.6945801</ele>
        <time>2011-11-13T11:46:48Z</time>
      </trkpt>
      <trkpt lat="43.33314" lon="-1.96956">
        <ele>84.2526855</ele>
        <time>2011-11-13T11:47:18Z</time>
      </trkpt>
      <trkpt lat="43.33314" lon="-1.96956">
        <ele>83.7719727</ele>
        <time>2011-11-13T11:47:48Z</time>
      </trkpt>
      <trkpt lat="43.33314" lon="-1.96956">
        <ele>87.1365967</ele>
        <time>2011-11-13T11:48:18Z</time>
      </trkpt>
      <trkpt lat="43.33314" lon="-1.96956">
        <ele>85.2139893</ele>
        <time>2011-11-13T11:48:48Z</time>
      </trkpt>
      <trkpt lat="43.33314" lon="-1.96956">
        <ele>85.2139893</ele>
        <time>2011-11-13T11:49:18Z</time>
      </trkpt>
      <trkpt lat="43.33314" lon="-1.96956">
        <ele>86.6560059</ele>
        <time>2011-11-13T11:49:48Z</time>
      </trkpt>
      <trkpt lat="43.33314" lon="-1.96956">
        <ele>85.6945801</ele>
        <time>2011-11-13T11:50:18Z</time>
      </trkpt>
      <trkpt lat="43.33314" lon="-1.96957">
        <ele>85.6945801</ele>
        <time>2011-11-13T11:50:48Z</time>
      </trkpt>
      <trkpt lat="43.33314" lon="-1.96956">
        <ele>87.6171875</ele>
        <time>2011-11-13T11:51:18Z</time>
      </trkpt>
      <trkpt lat="43.33314" lon="-1.96956">
        <ele>87.1365967</ele>
        <time>2011-11-13T11:51:48Z</time>
      </trkpt>
      <trkpt lat="43.33314" lon="-1.96956">
        <ele>86.175293</ele>
        <time>2011-11-13T11:52:18Z</time>
      </trkpt>
      <trkpt lat="43.33314" lon="-1.96956">
        <ele>86.175293</ele>
        <time>2011-11-13T11:52:48Z</time>
      </trkpt>
      <trkpt lat="43.33314" lon="-1.96956">
        <ele>87.6171875</ele>
        <time>2011-11-13T11:53:18Z</time>
      </trkpt>
      <trkpt lat="43.33314" lon="-1.96956">
        <ele>86.175293</ele>
        <time>2011-11-13T11:53:48Z</time>
      </trkpt>
      <trkpt lat="43.33314" lon="-1.96956">
        <ele>85.6945801</ele>
        <time>2011-11-13T11:54:18Z</time>
      </trkpt>
      <trkpt lat="43.33314" lon="-1.96956">
        <ele>85.6945801</ele>
        <time>2011-11-13T11:54:48Z</time>
      </trkpt>
      <trkpt lat="43.33314" lon="-1.96956">
        <ele>85.6945801</ele>
        <time>2011-11-13T11:55:18Z</time>
      </trkpt>
      <trkpt lat="43.33314" lon="-1.96956">
        <ele>87.1365967</ele>
        <time>2011-11-13T11:55:48Z</time>
      </trkpt>
      <trkpt lat="43.33314" lon="-1.96956">
        <ele>87.1365967</ele>
        <time>2011-11-13T11:56:18Z</time>
      </trkpt>
      <trkpt lat="43.33314" lon="-1.96956">
        <ele>87.6171875</ele>
        <time>2011-11-13T11:56:48Z</time>
      </trkpt>
      <trkpt lat="43.33314" lon="-1.96956">
        <ele>88.5787354</ele>
        <time>2011-11-13T11:57:18Z</time>
      </trkpt>
      <trkpt lat="43.33314" lon="-1.96956">
        <ele>88.0980225</ele>
        <time>2011-11-13T11:57:48Z</time>
      </trkpt>
      <trkpt lat="43.33314" lon="-1.96956">
        <ele>88.0980225</ele>
        <time>2011-11-13T11:58:18Z</time>
      </trkpt>
      <trkpt lat="43.33314" lon="-1.96956">
        <ele>88.0980225</ele>
        <time>2011-11-13T11:58:48Z</time>
      </trkpt>
      <trkpt lat="43.33314" lon="-1.96956">
        <ele>87.6171875</ele>
        <time>2011-11-13T11:59:18Z</time>
      </trkpt>
      <trkpt lat="43.33314" lon="-1.96957">
        <ele>89.0593262</ele>
        <time>2011-11-13T11:59:48Z</time>
      </trkpt>
      <trkpt lat="43.33312" lon="-1.96955">
        <ele>90.5013428</ele>
        <time>2011-11-13T12:00:18Z</time>
      </trkpt>
      <trkpt lat="43.33312" lon="-1.96958">
        <ele>90.5013428</ele>
        <time>2011-11-13T12:00:48Z</time>
      </trkpt>
      <trkpt lat="43.33313" lon="-1.96958">
        <ele>90.0206299</ele>
        <time>2011-11-13T12:01:18Z</time>
      </trkpt>
      <trkpt lat="43.33305" lon="-1.96958">
        <ele>90.0206299</ele>
        <time>2011-11-13T12:01:48Z</time>
      </trkpt>
      <trkpt lat="43.33294" lon="-1.9694">
        <ele>93.8658447</ele>
        <time>2011-11-13T12:02:18Z</time>
      </trkpt>
      <trkpt lat="43.33282" lon="-1.96924">
        <ele>99.1530762</ele>
        <time>2011-11-13T12:02:48Z</time>
      </trkpt>
      <trkpt lat="43.3327" lon="-1.96916">
        <ele>102.5177002</ele>
        <time>2011-11-13T12:03:18Z</time>
      </trkpt>
      <trkpt lat="43.33257" lon="-1.96936">
        <ele>98.6724854</ele>
        <time>2011-11-13T12:03:48Z</time>
      </trkpt>
      <trkpt lat="43.33243" lon="-1.96939">
        <ele>95.3077393</ele>
        <time>2011-11-13T12:04:18Z</time>
      </trkpt>
      <trkpt lat="43.33231" lon="-1.96938">
        <ele>95.7884521</ele>
        <time>2011-11-13T12:04:48Z</time>
      </trkpt>
      <trkpt lat="43.33213" lon="-1.96931">
        <ele>96.2692871</ele>
        <time>2011-11-13T12:05:18Z</time>
      </trkpt>
      <trkpt lat="43.33197" lon="-1.96915">
        <ele>100.114502</ele>
        <time>2011-11-13T12:05:48Z</time>
      </trkpt>
      <trkpt lat="43.3318" lon="-1.96898">
        <ele>104.4404297</ele>
        <time>2011-11-13T12:06:18Z</time>
      </trkpt>
      <trkpt lat="43.33173" lon="-1.96879">
        <ele>109.2469482</ele>
        <time>2011-11-13T12:06:48Z</time>
      </trkpt>
      <trkpt lat="43.33152" lon="-1.96854">
        <ele>107.3243408</ele>
        <time>2011-11-13T12:07:18Z</time>
      </trkpt>
      <trkpt lat="43.33124" lon="-1.96813">
        <ele>102.998291</ele>
        <time>2011-11-13T12:07:48Z</time>
      </trkpt>
      <trkpt lat="43.33114" lon="-1.96849">
        <ele>104.9210205</ele>
        <time>2011-11-13T12:08:18Z</time>
      </trkpt>
      <trkpt lat="43.33101" lon="-1.96886">
        <ele>106.3630371</ele>
        <time>2011-11-13T12:08:48Z</time>
      </trkpt>
      <trkpt lat="43.33089" lon="-1.96925">
        <ele>104.4404297</ele>
        <time>2011-11-13T12:09:18Z</time>
      </trkpt>
      <trkpt lat="43.33093" lon="-1.96969">
        <ele>101.5563965</ele>
        <time>2011-11-13T12:09:48Z</time>
      </trkpt>
      <trkpt lat="43.33077" lon="-1.97017">
        <ele>98.6724854</ele>
        <time>2011-11-13T12:10:18Z</time>
      </trkpt>
      <trkpt lat="43.3305" lon="-1.97034">
        <ele>96.2692871</ele>
        <time>2011-11-13T12:10:48Z</time>
      </trkpt>
      <trkpt lat="43.3301" lon="-1.97021">
        <ele>95.3077393</ele>
        <time>2011-11-13T12:11:18Z</time>
      </trkpt>
      <trkpt lat="43.32984" lon="-1.96992">
        <ele>90.5013428</ele>
        <time>2011-11-13T12:11:48Z</time>
      </trkpt>
      <trkpt lat="43.32983" lon="-1.96991">
        <ele>90.9819336</ele>
        <time>2011-11-13T12:12:18Z</time>
      </trkpt>
      <trkpt lat="43.32982" lon="-1.96988">
        <ele>90.9819336</ele>
        <time>2011-11-13T12:12:48Z</time>
      </trkpt>
      <trkpt lat="43.32965" lon="-1.96946">
        <ele>89.539917</ele>
        <time>2011-11-13T12:13:18Z</time>
      </trkpt>
      <trkpt lat="43.32946" lon="-1.96904">
        <ele>87.6171875</ele>
        <time>2011-11-13T12:13:48Z</time>
      </trkpt>
      <trkpt lat="43.32927" lon="-1.96858">
        <ele>85.6945801</ele>
        <time>2011-11-13T12:14:18Z</time>
      </trkpt>
      <trkpt lat="43.32893" lon="-1.96849">
        <ele>79.9266357</ele>
        <time>2011-11-13T12:14:48Z</time>
      </trkpt>
      <trkpt lat="43.32868" lon="-1.96841">
        <ele>74.1588135</ele>
        <time>2011-11-13T12:15:18Z</time>
      </trkpt>
      <trkpt lat="43.32839" lon="-1.96839">
        <ele>67.4296875</ele>
        <time>2011-11-13T12:15:48Z</time>
      </trkpt>
      <trkpt lat="43.32814" lon="-1.96838">
        <ele>60.7003174</ele>
        <time>2011-11-13T12:16:18Z</time>
      </trkpt>
      <trkpt lat="43.328" lon="-1.96849">
        <ele>53.0097656</ele>
        <time>2011-11-13T12:16:48Z</time>
      </trkpt>
      <trkpt lat="43.32797" lon="-1.9686">
        <ele>51.0871582</ele>
        <time>2011-11-13T12:17:18Z</time>
      </trkpt>
      <trkpt lat="43.32792" lon="-1.9689">
        <ele>46.2806396</ele>
        <time>2011-11-13T12:17:48Z</time>
      </trkpt>
      <trkpt lat="43.32772" lon="-1.96905">
        <ele>39.0706787</ele>
        <time>2011-11-13T12:18:18Z</time>
      </trkpt>
      <trkpt lat="43.32751" lon="-1.96923">
        <ele>31.380127</ele>
        <time>2011-11-13T12:18:48Z</time>
      </trkpt>
      <trkpt lat="43.32728" lon="-1.96936">
        <ele>27.0543213</ele>
        <time>2011-11-13T12:19:18Z</time>
      </trkpt>
      <trkpt lat="43.32702" lon="-1.96949">
        <ele>21.286377</ele>
        <time>2011-11-13T12:19:48Z</time>
      </trkpt>
      <trkpt lat="43.32685" lon="-1.96976">
        <ele>16.4797363</ele>
        <time>2011-11-13T12:20:18Z</time>
      </trkpt>
      <trkpt lat="43.32663" lon="-1.97005">
        <ele>9.7506104</ele>
        <time>2011-11-13T12:20:48Z</time>
      </trkpt>
      <trkpt lat="43.32643" lon="-1.97042">
        <ele>6.3858643</ele>
        <time>2011-11-13T12:21:18Z</time>
      </trkpt>
      <trkpt lat="43.32629" lon="-1.97069">
        <ele>1.5793457</ele>
        <time>2011-11-13T12:21:48Z</time>
      </trkpt>
      <trkpt lat="43.32612" lon="-1.97086">
        <ele>-1.3046875</ele>
        <time>2011-11-13T12:22:18Z</time>
      </trkpt>
      <trkpt lat="43.32604" lon="-1.97099">
        <ele>-2.2659912</ele>
        <time>2011-11-13T12:22:48Z</time>
      </trkpt>
      <trkpt lat="43.32612" lon="-1.97107">
        <ele>-1.3046875</ele>
        <time>2011-11-13T12:23:18Z</time>
      </trkpt>
      <trkpt lat="43.32621" lon="-1.97115">
        <ele>-1.7852783</ele>
        <time>2011-11-13T12:23:48Z</time>
      </trkpt>
      <trkpt lat="43.32644" lon="-1.97146">
        <ele>-1.3046875</ele>
        <time>2011-11-13T12:24:18Z</time>
      </trkpt>
      <trkpt lat="43.32654" lon="-1.97164">
        <ele>-2.2659912</ele>
        <time>2011-11-13T12:24:48Z</time>
      </trkpt>
      <trkpt lat="43.32659" lon="-1.97173">
        <ele>-1.3046875</ele>
        <time>2011-11-13T12:25:18Z</time>
      </trkpt>
      <trkpt lat="43.32657" lon="-1.9716">
        <ele>-1.7852783</ele>
        <time>2011-11-13T12:25:48Z</time>
      </trkpt>
      <trkpt lat="43.32657" lon="-1.9716">
        <ele>-2.7467041</ele>
        <time>2011-11-13T12:26:18Z</time>
      </trkpt>
      <trkpt lat="43.32664" lon="-1.97168">
        <ele>-2.7467041</ele>
        <time>2011-11-13T12:26:48Z</time>
      </trkpt>
      <trkpt lat="43.32672" lon="-1.97211">
        <ele>-3.2272949</ele>
        <time>2011-11-13T12:27:18Z</time>
      </trkpt>
      <trkpt lat="43.32654" lon="-1.97248">
        <ele>-2.7467041</ele>
        <time>2011-11-13T12:27:48Z</time>
      </trkpt>
      <trkpt lat="43.32645" lon="-1.9725">
        <ele>-3.2272949</ele>
        <time>2011-11-13T12:28:18Z</time>
      </trkpt>
      <trkpt lat="43.32643" lon="-1.97255">
        <ele>-2.7467041</ele>
        <time>2011-11-13T12:28:48Z</time>
      </trkpt>
      <trkpt lat="43.32639" lon="-1.97255">
        <ele>-2.7467041</ele>
        <time>2011-11-13T12:29:18Z</time>
      </trkpt>
      <trkpt lat="43.32639" lon="-1.97255">
        <ele>-2.7467041</ele>
        <time>2011-11-13T12:29:48Z</time>
      </trkpt>
      <trkpt lat="43.32639" lon="-1.97256">
        <ele>-2.7467041</ele>
        <time>2011-11-13T12:30:18Z</time>
      </trkpt>
      <trkpt lat="43.32632" lon="-1.97285">
        <ele>-2.7467041</ele>
        <time>2011-11-13T12:30:48Z</time>
      </trkpt>
      <trkpt lat="43.32623" lon="-1.97324">
        <ele>-3.7078857</ele>
        <time>2011-11-13T12:31:18Z</time>
      </trkpt>
      <trkpt lat="43.3261" lon="-1.97363">
        <ele>-4.1885986</ele>
        <time>2011-11-13T12:31:48Z</time>
      </trkpt>
      <trkpt lat="43.32595" lon="-1.97401">
        <ele>-4.1885986</ele>
        <time>2011-11-13T12:32:18Z</time>
      </trkpt>
      <trkpt lat="43.32582" lon="-1.97435">
        <ele>-4.1885986</ele>
        <time>2011-11-13T12:32:48Z</time>
      </trkpt>
      <trkpt lat="43.32566" lon="-1.97467">
        <ele>-4.6693115</ele>
        <time>2011-11-13T12:33:18Z</time>
      </trkpt>
      <trkpt lat="43.32553" lon="-1.97504">
        <ele>-4.6693115</ele>
        <time>2011-11-13T12:33:48Z</time>
      </trkpt>
      <trkpt lat="43.32538" lon="-1.97539">
        <ele>-4.6693115</ele>
        <time>2011-11-13T12:34:18Z</time>
      </trkpt>
      <trkpt lat="43.32522" lon="-1.9757">
        <ele>-4.6693115</ele>
        <time>2011-11-13T12:34:48Z</time>
      </trkpt>
      <trkpt lat="43.32509" lon="-1.97612">
        <ele>-4.6693115</ele>
        <time>2011-11-13T12:35:18Z</time>
      </trkpt>
      <trkpt lat="43.32497" lon="-1.9765">
        <ele>-4.6693115</ele>
        <time>2011-11-13T12:35:48Z</time>
      </trkpt>
      <trkpt lat="43.32484" lon="-1.97683">
        <ele>-4.6693115</ele>
        <time>2011-11-13T12:36:18Z</time>
      </trkpt>
      <trkpt lat="43.32473" lon="-1.97717">
        <ele>-4.6693115</ele>
        <time>2011-11-13T12:36:48Z</time>
      </trkpt>
      <trkpt lat="43.32457" lon="-1.97749">
        <ele>-3.7078857</ele>
        <time>2011-11-13T12:37:18Z</time>
      </trkpt>
      <trkpt lat="43.32443" lon="-1.97779">
        <ele>-3.7078857</ele>
        <time>2011-11-13T12:37:48Z</time>
      </trkpt>
      <trkpt lat="43.32427" lon="-1.9781">
        <ele>-3.7078857</ele>
        <time>2011-11-13T12:38:18Z</time>
      </trkpt>
      <trkpt lat="43.3241" lon="-1.97842">
        <ele>-4.1885986</ele>
        <time>2011-11-13T12:38:48Z</time>
      </trkpt>
      <trkpt lat="43.32401" lon="-1.97877">
        <ele>-4.1885986</ele>
        <time>2011-11-13T12:39:18Z</time>
      </trkpt>
      <trkpt lat="43.3239" lon="-1.97911">
        <ele>-3.7078857</ele>
        <time>2011-11-13T12:39:48Z</time>
      </trkpt>
      <trkpt lat="43.3238" lon="-1.97947">
        <ele>-3.2272949</ele>
        <time>2011-11-13T12:40:18Z</time>
      </trkpt>
      <trkpt lat="43.32368" lon="-1.97977">
        <ele>-3.7078857</ele>
        <time>2011-11-13T12:40:48Z</time>
      </trkpt>
      <trkpt lat="43.32358" lon="-1.98008">
        <ele>-4.1885986</ele>
        <time>2011-11-13T12:41:18Z</time>
      </trkpt>
      <trkpt lat="43.32344" lon="-1.9804">
        <ele>-4.1885986</ele>
        <time>2011-11-13T12:41:48Z</time>
      </trkpt>
      <trkpt lat="43.32335" lon="-1.98061">
        <ele>-4.1885986</ele>
        <time>2011-11-13T12:42:18Z</time>
      </trkpt>
      <trkpt lat="43.32333" lon="-1.98063">
        <ele>-4.6693115</ele>
        <time>2011-11-13T12:42:48Z</time>
      </trkpt>
      <trkpt lat="43.32326" lon="-1.98094">
        <ele>-5.1499023</ele>
        <time>2011-11-13T12:43:18Z</time>
      </trkpt>
      <trkpt lat="43.32319" lon="-1.98128">
        <ele>-6.5919189</ele>
        <time>2011-11-13T12:43:48Z</time>
      </trkpt>
      <trkpt lat="43.32305" lon="-1.98166">
        <ele>-7.0725098</ele>
        <time>2011-11-13T12:44:18Z</time>
      </trkpt>
      <trkpt lat="43.32294" lon="-1.98201">
        <ele>-7.5531006</ele>
        <time>2011-11-13T12:44:48Z</time>
      </trkpt>
      <trkpt lat="43.32283" lon="-1.98239">
        <ele>-8.5146484</ele>
        <time>2011-11-13T12:45:18Z</time>
      </trkpt>
      <trkpt lat="43.32268" lon="-1.98269">
        <ele>-8.0339355</ele>
        <time>2011-11-13T12:45:48Z</time>
      </trkpt>
      <trkpt lat="43.32261" lon="-1.98307">
        <ele>-9.4758301</ele>
        <time>2011-11-13T12:46:18Z</time>
      </trkpt>
      <trkpt lat="43.32255" lon="-1.9834">
        <ele>-8.5146484</ele>
        <time>2011-11-13T12:46:48Z</time>
      </trkpt>
      <trkpt lat="43.32236" lon="-1.9836">
        <ele>-9.4758301</ele>
        <time>2011-11-13T12:47:18Z</time>
      </trkpt>
      <trkpt lat="43.32225" lon="-1.98404">
        <ele>-8.5146484</ele>
        <time>2011-11-13T12:47:48Z</time>
      </trkpt>
      <trkpt lat="43.32207" lon="-1.98445">
        <ele>-8.9952393</ele>
        <time>2011-11-13T12:48:18Z</time>
      </trkpt>
      <trkpt lat="43.32198" lon="-1.98468">
        <ele>-9.4758301</ele>
        <time>2011-11-13T12:48:48Z</time>
      </trkpt>
      <trkpt lat="43.32214" lon="-1.98494">
        <ele>-9.4758301</ele>
        <time>2011-11-13T12:49:18Z</time>
      </trkpt>
      <trkpt lat="43.32213" lon="-1.9851">
        <ele>-9.4758301</ele>
        <time>2011-11-13T12:49:48Z</time>
      </trkpt>
      <trkpt lat="43.32201" lon="-1.98526">
        <ele>-8.9952393</ele>
        <time>2011-11-13T12:50:18Z</time>
      </trkpt>
      <trkpt lat="43.3218" lon="-1.98509">
        <ele>-8.9952393</ele>
        <time>2011-11-13T12:50:48Z</time>
      </trkpt>
      <trkpt lat="43.32158" lon="-1.98507">
        <ele>-8.5146484</ele>
        <time>2011-11-13T12:51:18Z</time>
      </trkpt>
      <trkpt lat="43.32144" lon="-1.98491">
        <ele>-8.5146484</ele>
        <time>2011-11-13T12:51:48Z</time>
      </trkpt>
      <trkpt lat="43.32135" lon="-1.98496">
        <ele>-8.9952393</ele>
        <time>2011-11-13T12:52:18Z</time>
      </trkpt>
      <trkpt lat="43.32118" lon="-1.98508">
        <ele>-8.5146484</ele>
        <time>2011-11-13T12:52:48Z</time>
      </trkpt>
      <trkpt lat="43.32104" lon="-1.98501">
        <ele>-8.5146484</ele>
        <time>2011-11-13T12:53:18Z</time>
      </trkpt>
      <trkpt lat="43.32088" lon="-1.98486">
        <ele>-8.0339355</ele>
        <time>2011-11-13T12:53:48Z</time>
      </trkpt>
      <trkpt lat="43.32067" lon="-1.98469">
        <ele>-8.0339355</ele>
        <time>2011-11-13T12:54:18Z</time>
      </trkpt>
      <trkpt lat="43.32057" lon="-1.98464">
        <ele>-8.5146484</ele>
        <time>2011-11-13T12:54:48Z</time>
      </trkpt>
      <trkpt lat="43.32056" lon="-1.98464">
        <ele>-9.4758301</ele>
        <time>2011-11-13T12:55:18Z</time>
      </trkpt>
      <trkpt lat="43.32057" lon="-1.98464">
        <ele>-8.5146484</ele>
        <time>2011-11-13T12:55:48Z</time>
      </trkpt>
      <trkpt lat="43.32057" lon="-1.98464">
        <ele>-8.9952393</ele>
        <time>2011-11-13T12:56:18Z</time>
      </trkpt>
      <trkpt lat="43.32057" lon="-1.98464">
        <ele>-8.9952393</ele>
        <time>2011-11-13T12:56:48Z</time>
      </trkpt>
      <trkpt lat="43.32057" lon="-1.98464">
        <ele>-8.5146484</ele>
        <time>2011-11-13T12:57:18Z</time>
      </trkpt>
      <trkpt lat="43.32055" lon="-1.98464">
        <ele>-7.5531006</ele>
        <time>2011-11-13T12:57:48Z</time>
      </trkpt>
      <trkpt lat="43.32032" lon="-1.98448">
        <ele>-8.5146484</ele>
        <time>2011-11-13T12:58:18Z</time>
      </trkpt>
      <trkpt lat="43.3201" lon="-1.98433">
        <ele>-7.5531006</ele>
        <time>2011-11-13T12:58:48Z</time>
      </trkpt>
      <trkpt lat="43.32006" lon="-1.98406">
        <ele>-7.5531006</ele>
        <time>2011-11-13T12:59:18Z</time>
      </trkpt>
      <trkpt lat="43.31994" lon="-1.98392">
        <ele>-7.5531006</ele>
        <time>2011-11-13T12:59:48Z</time>
      </trkpt>
      <trkpt lat="43.31981" lon="-1.98375">
        <ele>-8.0339355</ele>
        <time>2011-11-13T13:00:18Z</time>
      </trkpt>
      <trkpt lat="43.31959" lon="-1.98358">
        <ele>-8.0339355</ele>
        <time>2011-11-13T13:00:48Z</time>
      </trkpt>
      <trkpt lat="43.31937" lon="-1.98334">
        <ele>-8.5146484</ele>
        <time>2011-11-13T13:01:18Z</time>
      </trkpt>
      <trkpt lat="43.31922" lon="-1.98296">
        <ele>-8.0339355</ele>
        <time>2011-11-13T13:01:48Z</time>
      </trkpt>
      <trkpt lat="43.3191" lon="-1.98302">
        <ele>-7.5531006</ele>
        <time>2011-11-13T13:02:18Z</time>
      </trkpt>
      <trkpt lat="43.31889" lon="-1.98298">
        <ele>-7.5531006</ele>
        <time>2011-11-13T13:02:48Z</time>
      </trkpt>
      <trkpt lat="43.31856" lon="-1.98283">
        <ele>-7.5531006</ele>
        <time>2011-11-13T13:03:18Z</time>
      </trkpt>
      <trkpt lat="43.31829" lon="-1.98264">
        <ele>-8.0339355</ele>
        <time>2011-11-13T13:03:48Z</time>
      </trkpt>
      <trkpt lat="43.31796" lon="-1.98235">
        <ele>-7.0725098</ele>
        <time>2011-11-13T13:04:18Z</time>
      </trkpt>
      <trkpt lat="43.31773" lon="-1.98223">
        <ele>-6.5919189</ele>
        <time>2011-11-13T13:04:48Z</time>
      </trkpt>
      <trkpt lat="43.3175" lon="-1.98211">
        <ele>-6.5919189</ele>
        <time>2011-11-13T13:05:18Z</time>
      </trkpt>
      <trkpt lat="43.3174" lon="-1.98191">
        <ele>-6.5919189</ele>
        <time>2011-11-13T13:05:48Z</time>
      </trkpt>
      <trkpt lat="43.31749" lon="-1.98143">
        <ele>-6.5919189</ele>
        <time>2011-11-13T13:06:18Z</time>
      </trkpt>
      <trkpt lat="43.3176" lon="-1.98148">
        <ele>-7.0725098</ele>
        <time>2011-11-13T13:06:48Z</time>
      </trkpt>
      <trkpt lat="43.31735" lon="-1.98145">
        <ele>-7.5531006</ele>
        <time>2011-11-13T13:07:18Z</time>
      </trkpt>
      <trkpt lat="43.31705" lon="-1.98125">
        <ele>-6.5919189</ele>
        <time>2011-11-13T13:07:48Z</time>
      </trkpt>
      <trkpt lat="43.31672" lon="-1.98109">
        <ele>-7.5531006</ele>
        <time>2011-11-13T13:08:18Z</time>
      </trkpt>
      <trkpt lat="43.31647" lon="-1.98091">
        <ele>-7.0725098</ele>
        <time>2011-11-13T13:08:48Z</time>
      </trkpt>
      <trkpt lat="43.31624" lon="-1.98115">
        <ele>-6.1112061</ele>
        <time>2011-11-13T13:09:18Z</time>
      </trkpt>
      <trkpt lat="43.31594" lon="-1.98095">
        <ele>-6.5919189</ele>
        <time>2011-11-13T13:09:48Z</time>
      </trkpt>
      <trkpt lat="43.31565" lon="-1.9808">
        <ele>-6.1112061</ele>
        <time>2011-11-13T13:10:18Z</time>
      </trkpt>
      <trkpt lat="43.31562" lon="-1.98078">
        <ele>-6.1112061</ele>
        <time>2011-11-13T13:10:48Z</time>
      </trkpt>
      <trkpt lat="43.31569" lon="-1.98077">
        <ele>-6.1112061</ele>
        <time>2011-11-13T13:11:18Z</time>
      </trkpt>
      <trkpt lat="43.31565" lon="-1.98069">
        <ele>-5.1499023</ele>
        <time>2011-11-13T13:11:48Z</time>
      </trkpt>
      <trkpt lat="43.31566" lon="-1.98055">
        <ele>-5.1499023</ele>
        <time>2011-11-13T13:12:18Z</time>
      </trkpt>
      <trkpt lat="43.31567" lon="-1.98057">
        <ele>-5.1499023</ele>
        <time>2011-11-13T13:12:48Z</time>
      </trkpt>
      <trkpt lat="43.31567" lon="-1.98058">
        <ele>-5.1499023</ele>
        <time>2011-11-13T13:13:18Z</time>
      </trkpt>
      <trkpt lat="43.31564" lon="-1.98059">
        <ele>-5.6304932</ele>
        <time>2011-11-13T13:13:48Z</time>
      </trkpt>
      <trkpt lat="43.31571" lon="-1.98069">
        <ele>-5.1499023</ele>
        <time>2011-11-13T13:14:18Z</time>
      </trkpt>
      <trkpt lat="43.31569" lon="-1.98069">
        <ele>-5.1499023</ele>
        <time>2011-11-13T13:14:20Z</time>
      </trkpt>
    </trkseg>
  </trk>
</gpx>